Champion, New York
Current Conditions -  °F | °C
As of 8:58 PM on Friday 28 Nov 2014 (Local Time) from KGTB Reporting Station
Clear Clear  
Wind Chill: 19°   Ceiling: Unl
Heat Index: 19°   Visibility: 10mi
Dew Point: 12°   Wind: 3mph
Humidity: 74%   Direction: 280°W
Pressure: 30.17"   Gusts: NA
Location:  43.9769°N, 75.558°W
Report Text: KGTB 290158Z AUTO 28003KT 10SM CLR M07/M11 A3017 RMK AO2 SLP229 T10741113
Loading
Personal Weather Stations






























Interactive Weather Map New forecast layout! Learn more

10-Day Weather Forecast

Advertisements
Track Severe Weather on mobile